Time;durP1;ratioP1;P1;durP2;ratioP2;P2;SDS_P1;SDS_P2;PMS_P1;PMS_P2;Temp;Humidity;BMP_temperature;BMP_pressure;BME280_temperature;BME280_humidity;BME280_pressure;Samples;Min_cycle;Max_cycle;Signal;HPM_P1;HPM_P2
2021/05/25 00:01:14;;;;;;;1.65;0.90;;;;;;;15.78;65.39;100176.63;4972130;28;20077;-81
2021/05/25 00:04:20;;;;;;;5.53;1.65;;;;;;;15.79;64.63;100186.28;4965052;28;20022;-78
2021/05/25 00:06:48;;;;;;;1.45;0.88;;;;;;;15.72;64.28;100183.34;4949921;28;20171;-82
2021/05/25 00:12:31;;;;;;;1.92;0.80;;;;;;;15.68;65.61;100189.88;4957203;28;20042;-81
2021/05/25 00:15:33;;;;;;;9.35;1.17;;;;;;;15.61;66.18;100202.78;4961429;28;20043;-81
2021/05/25 00:18:15;;;;;;;3.15;0.93;;;;;;;15.47;66.54;100210.25;4958443;28;20070;-81
2021/05/25 00:20:52;;;;;;;3.42;1.17;;;;;;;15.53;67.02;100213.22;4958335;28;20050;-81
2021/05/25 00:23:32;;;;;;;6.15;1.20;;;;;;;15.57;64.81;100214.63;4979634;28;20046;-82
2021/05/25 00:26:10;;;;;;;2.65;0.93;;;;;;;15.46;63.93;100217.38;4962954;28;20046;-82
2021/05/25 00:28:55;;;;;;;2.17;1.00;;;;;;;15.47;63.23;100223.53;4964439;28;20058;-82
2021/05/25 00:31:41;;;;;;;2.70;1.08;;;;;;;15.48;62.04;100233.16;4963294;28;20188;-83
2021/05/25 00:34:51;;;;;;;3.10;1.05;;;;;;;15.35;61.83;100243.97;4950096;28;20051;-83
2021/05/25 00:37:46;;;;;;;3.53;1.23;;;;;;;15.25;61.64;100243.06;4977383;28;20058;-83
2021/05/25 00:40:41;;;;;;;3.40;1.35;;;;;;;15.13;61.28;100242.28;4960709;28;20078;-81
2021/05/25 00:43:28;;;;;;;4.10;1.48;;;;;;;14.99;60.99;100247.91;4966864;28;20023;-83
2021/05/25 00:46:21;;;;;;;6.10;0.93;;;;;;;14.78;61.77;100254.03;4964439;28;20636;-82
2021/05/25 00:48:48;;;;;;;2.03;1.00;;;;;;;14.80;62.21;100261.84;4978639;22;20175;-71
2021/05/25 00:51:16;;;;;;;6.85;1.35;;;;;;;14.79;62.90;100260.19;5022300;28;20547;-71
2021/05/25 00:53:43;;;;;;;2.03;0.90;;;;;;;14.61;63.31;100263.34;5032499;28;20045;-70
2021/05/25 00:56:11;;;;;;;3.20;0.95;;;;;;;14.44;64.74;100259.38;5034108;28;20049;-72
2021/05/25 00:58:38;;;;;;;4.20;1.02;;;;;;;14.36;65.92;100264.50;5028156;28;20049;-71
2021/05/25 01:01:06;;;;;;;1.73;1.10;;;;;;;14.38;65.86;100269.66;5028594;28;20049;-71
2021/05/25 01:03:33;;;;;;;3.03;0.90;;;;;;;14.30;67.68;100275.56;5032334;28;20050;-70
2021/05/25 01:06:01;;;;;;;4.10;1.17;;;;;;;14.15;68.37;100269.69;5027781;28;20068;-70
2021/05/25 01:08:28;;;;;;;1.73;0.95;;;;;;;13.92;70.27;100266.22;5029956;28;20695;-70
2021/05/25 01:11:07;;;;;;;6.03;1.42;;;;;;;13.67;72.30;100271.72;5028026;28;20076;-70
2021/05/25 01:13:42;;;;;;;4.80;1.42;;;;;;;13.63;73.60;100263.19;5032943;28;20049;-69
2021/05/25 01:16:09;;;;;;;;;;;;;;;13.51;74.85;100271.22;5027317;28;20045;-70
2021/05/25 01:18:37;;;;;;;9.77;1.58;;;;;;;13.34;76.31;100269.88;5010703;28;19921;-69
2021/05/25 01:21:07;;;;;;;2.10;0.98;;;;;;;13.23;78.49;100262.72;5026030;28;20063;-70
2021/05/25 01:23:36;;;;;;;2.17;1.23;;;;;;;13.08;78.55;100258.59;5030040;28;20503;-69
2021/05/25 01:26:04;;;;;;;3.75;1.05;;;;;;;13.04;80.49;100257.13;5026804;28;20056;-70
2021/05/25 01:28:31;;;;;;;2.65;1.05;;;;;;;12.91;81.55;100254.56;5032093;28;20056;-71
2021/05/25 01:30:59;;;;;;;5.03;1.30;;;;;;;12.79;82.68;100253.69;4992690;28;20050;-71
2021/05/25 01:33:29;;;;;;;6.13;1.20;;;;;;;12.84;84.17;100248.06;5028967;28;20049;-70
2021/05/25 01:35:56;;;;;;;6.43;1.63;;;;;;;12.80;84.27;100246.59;5024741;28;20065;-71
2021/05/25 01:38:24;;;;;;;2.22;0.85;;;;;;;12.81;84.34;100246.47;5024687;28;20052;-71
2021/05/25 01:40:54;;;;;;;3.50;1.25;;;;;;;12.74;86.74;100249.69;5023703;28;20410;-71
2021/05/25 01:43:21;;;;;;;5.93;1.25;;;;;;;12.76;87.73;100253.91;5012238;28;20065;-71
2021/05/25 01:45:48;;;;;;;4.05;1.13;;;;;;;12.83;85.35;100262.19;5027604;28;20046;-70
2021/05/25 01:48:16;;;;;;;2.75;1.00;;;;;;;12.76;85.58;100268.91;5029565;28;20145;-71
2021/05/25 01:50:44;;;;;;;2.83;1.20;;;;;;;12.76;86.16;100274.19;5033802;28;20132;-71
2021/05/25 01:53:13;;;;;;;2.25;1.08;;;;;;;12.80;86.33;100280.94;5003702;28;20057;-70
2021/05/25 01:59:53;;;;;;;4.05;1.73;;;;;;;12.53;90.17;100273.25;5022524;28;20035;-71
2021/05/25 02:02:20;;;;;;;6.20;1.48;;;;;;;12.51;89.81;100275.97;5032382;28;20160;-71
2021/05/25 02:04:47;;;;;;;3.08;1.55;;;;;;;12.44;91.87;100272.09;5036732;28;20059;-69
2021/05/25 02:07:18;;;;;;;2.45;1.25;;;;;;;12.59;91.82;100268.34;5024365;28;20091;-71
2021/05/25 02:09:46;;;;;;;3.30;1.42;;;;;;;12.67;91.62;100267.78;5024038;28;20546;-71
2021/05/25 02:12:17;;;;;;;3.45;1.58;;;;;;;12.49;91.79;100262.06;5023539;28;20110;-72
2021/05/25 02:14:44;;;;;;;4.50;1.70;;;;;;;12.37;92.50;100255.00;5025199;28;20054;-70
2021/05/25 02:17:11;;;;;;;5.15;1.55;;;;;;;12.36;94.25;100230.41;5031237;28;20058;-70
2021/05/25 02:19:38;;;;;;;4.03;1.40;;;;;;;12.38;94.79;100223.25;5033314;28;20050;-69
2021/05/25 02:22:05;;;;;;;2.67;1.50;;;;;;;12.16;94.95;100208.13;5032204;28;20049;-69
2021/05/25 02:24:32;;;;;;;6.10;1.50;;;;;;;12.04;91.18;100216.91;5028019;28;20073;-69
2021/05/25 02:27:00;;;;;;;4.30;1.55;;;;;;;11.95;90.72;100222.00;5031014;28;20488;-70
2021/05/25 02:29:27;;;;;;;9.98;2.10;;;;;;;11.95;91.77;100219.34;5024043;28;20053;-70
2021/05/25 02:31:54;;;;;;;3.20;1.83;;;;;;;12.16;92.21;100207.28;5027335;28;20132;-68
2021/05/25 02:34:21;;;;;;;5.82;1.48;;;;;;;12.39;93.12;100211.72;5027869;28;20144;-70
2021/05/25 02:36:48;;;;;;;4.22;1.30;;;;;;;12.23;94.10;100200.59;5030687;28;20045;-72
2021/05/25 02:39:15;;;;;;;3.28;1.27;;;;;;;12.13;94.63;100208.31;5029258;28;20104;-71
2021/05/25 02:41:43;;;;;;;5.63;1.52;;;;;;;12.20;94.18;100199.97;5029434;28;20043;-71
2021/05/25 02:44:10;;;;;;;4.00;1.17;;;;;;;12.22;93.03;100198.91;5029977;28;20175;-71
2021/05/25 02:46:37;;;;;;;6.13;1.80;;;;;;;12.36;94.07;100206.66;5032625;28;20053;-70
2021/05/25 02:49:04;;;;;;;4.35;1.52;;;;;;;12.32;94.13;100205.19;5031048;28;20092;-71
2021/05/25 02:51:31;;;;;;;5.50;1.83;;;;;;;12.16;95.25;100204.63;5037061;28;20571;-70
2021/05/25 02:53:59;;;;;;;9.02;1.90;;;;;;;12.06;96.26;100204.44;5025996;28;20080;-71
2021/05/25 02:56:26;;;;;;;4.57;1.80;;;;;;;12.02;94.33;100216.19;5025317;28;20364;-68
2021/05/25 02:58:54;;;;;;;2.58;1.33;;;;;;;12.40;94.23;100215.19;5026408;28;20081;-70
2021/05/25 03:01:21;;;;;;;4.60;2.03;;;;;;;12.55;92.17;100219.34;5029589;28;20057;-70
2021/05/25 03:03:48;;;;;;;4.60;1.98;;;;;;;12.51;94.70;100228.44;5004644;28;20085;-70
2021/05/25 03:06:16;;;;;;;6.35;1.73;;;;;;;12.44;96.30;100221.94;5025707;28;20962;-70
2021/05/25 03:08:43;;;;;;;9.55;1.27;;;;;;;12.21;96.83;100228.91;5008725;28;20551;-69
2021/05/25 03:11:10;;;;;;;4.00;1.67;;;;;;;12.02;97.51;100224.09;5026960;28;20088;-71
2021/05/25 03:13:37;;;;;;;6.70;1.60;;;;;;;12.08;99.31;100230.72;5026465;28;20049;-70
2021/05/25 03:16:05;;;;;;;7.68;2.03;;;;;;;12.06;100.00;100235.25;5024932;28;20654;-70
2021/05/25 03:18:32;;;;;;;8.73;2.78;;;;;;;12.30;99.05;100232.66;5026398;28;20049;-69
2021/05/25 03:20:59;;;;;;;3.60;1.85;;;;;;;12.21;98.46;100230.69;5026623;28;20049;-70
2021/05/25 03:23:26;;;;;;;3.45;1.70;;;;;;;12.17;99.38;100222.16;5024627;28;20054;-70
2021/05/25 03:25:56;;;;;;;5.47;1.73;;;;;;;12.33;99.47;100232.44;5031755;28;20088;-70
2021/05/25 03:28:23;;;;;;;5.93;2.00;;;;;;;12.36;98.52;100240.13;5028733;28;20287;-69
2021/05/25 03:30:55;;;;;;;3.55;1.83;;;;;;;12.32;98.89;100228.09;5004273;28;20076;-69
2021/05/25 03:33:22;;;;;;;5.60;1.77;;;;;;;12.44;97.49;100232.50;5025311;28;20048;-70
2021/05/25 03:35:50;;;;;;;5.88;1.85;;;;;;;12.47;96.66;100231.41;5028805;28;20235;-70
2021/05/25 03:38:17;;;;;;;4.88;2.30;;;;;;;12.40;98.33;100233.69;5027959;28;20053;-70
2021/05/25 03:40:44;;;;;;;4.95;2.10;;;;;;;12.40;98.46;100233.69;5026164;28;20071;-71
2021/05/25 03:43:11;;;;;;;3.70;2.00;;;;;;;12.40;97.86;100234.53;5020089;28;20053;-69
2021/05/25 03:45:38;;;;;;;6.90;2.45;;;;;;;12.38;98.59;100228.53;5028143;28;20049;-69
2021/05/25 03:48:06;;;;;;;6.45;2.22;;;;;;;12.39;98.34;100224.09;5018055;28;20439;-70
2021/05/25 03:50:33;;;;;;;8.30;2.10;;;;;;;12.38;98.86;100227.66;5026120;28;20417;-69
2021/05/25 03:53:00;;;;;;;4.53;2.72;;;;;;;12.28;99.92;100224.84;5018037;28;20046;-70
2021/05/25 03:55:44;;;;;;;5.50;2.30;;;;;;;12.50;98.48;100225.94;5023082;28;20060;-71
2021/05/25 04:00:57;;;;;;;4.63;2.05;;;;;;;12.31;98.70;100223.78;5029669;28;20063;-70
2021/05/25 04:03:25;;;;;;;6.05;2.50;;;;;;;12.32;98.97;100228.09;5027824;28;20082;-70
2021/05/25 04:05:52;;;;;;;6.10;2.90;;;;;;;12.46;99.17;100221.81;5024565;28;20042;-71
2021/05/25 04:08:20;;;;;;;3.40;1.90;;;;;;;12.38;98.50;100233.81;5025178;28;20085;-70
2021/05/25 04:10:48;;;;;;;3.92;1.85;;;;;;;12.49;97.63;100235.66;5021662;28;20053;-71
2021/05/25 04:13:16;;;;;;;6.50;1.98;;;;;;;12.65;95.48;100244.13;5024008;28;20069;-70
2021/05/25 04:15:47;;;;;;;2.47;1.80;;;;;;;12.69;95.16;100236.81;5019015;28;20045;-71
2021/05/25 04:18:14;;;;;;;5.90;2.05;;;;;;;12.78;95.68;100232.66;5018928;28;20268;-71
2021/05/25 04:20:42;;;;;;;5.75;1.83;;;;;;;12.85;93.74;100244.47;5021981;28;20077;-71
2021/05/25 04:23:09;;;;;;;5.38;2.00;;;;;;;13.02;92.84;100240.56;5021188;28;20116;-71
2021/05/25 04:25:36;;;;;;;5.43;1.85;;;;;;;13.08;90.45;100235.66;5024417;28;20164;-71
2021/05/25 04:28:04;;;;;;;3.85;1.80;;;;;;;13.08;90.81;100245.38;5024649;28;20053;-70
2021/05/25 04:30:31;;;;;;;3.22;1.88;;;;;;;12.86;93.49;100244.34;5023376;28;20276;-70
2021/05/25 04:32:59;;;;;;;5.07;2.38;;;;;;;12.87;93.70;100251.28;5019048;28;20421;-71
2021/05/25 04:35:26;;;;;;;3.83;1.70;;;;;;;12.89;93.44;100251.19;5003867;28;20054;-71
2021/05/25 04:37:56;;;;;;;3.78;1.73;;;;;;;12.71;93.24;100256.03;5028845;28;20490;-71
2021/05/25 04:40:23;;;;;;;3.60;2.10;;;;;;;12.72;93.71;100249.81;5022087;28;20399;-71
2021/05/25 04:42:51;;;;;;;5.05;2.30;;;;;;;12.64;92.73;100249.50;5021171;28;20514;-71
2021/05/25 04:45:18;;;;;;;3.67;1.70;;;;;;;12.76;91.95;100259.19;5021651;28;20167;-71
2021/05/25 04:47:46;;;;;;;4.60;1.85;;;;;;;12.70;91.50;100253.50;5029564;28;20072;-71
2021/05/25 04:50:14;;;;;;;4.47;1.75;;;;;;;12.78;90.72;100240.56;5027416;28;20057;-71
2021/05/25 04:52:41;;;;;;;3.92;1.67;;;;;;;12.81;90.30;100246.47;5020634;28;20132;-70
2021/05/25 04:55:12;;;;;;;4.40;2.58;;;;;;;12.84;89.07;100245.41;5025232;28;20057;-71
2021/05/25 04:57:39;;;;;;;6.57;2.33;;;;;;;12.94;89.07;100243.78;5025724;28;20145;-71
2021/05/25 05:00:08;;;;;;;2.78;1.65;;;;;;;13.20;87.01;100251.53;5023403;28;20463;-71
2021/05/25 05:02:36;;;;;;;4.82;1.90;;;;;;;13.08;87.85;100256.78;5020581;28;20083;-71
2021/05/25 05:05:05;;;;;;;3.75;1.50;;;;;;;13.46;85.48;100247.75;4998438;28;20146;-70
2021/05/25 05:07:32;;;;;;;4.25;1.63;;;;;;;13.76;81.80;100246.34;5011491;28;20432;-74
2021/05/25 05:10:00;;;;;;;4.80;1.77;;;;;;;13.88;81.83;100248.88;5020229;28;20081;-72
2021/05/25 05:12:27;;;;;;;4.82;1.77;;;;;;;14.09;81.96;100241.03;5002207;28;20961;-71
2021/05/25 05:14:55;;;;;;;4.43;1.63;;;;;;;14.16;80.32;100244.88;4994625;28;20113;-71
2021/05/25 05:17:27;;;;;;;2.90;1.35;;;;;;;14.27;78.66;100245.81;5020497;28;20457;-72
2021/05/25 05:19:55;;;;;;;3.00;1.13;;;;;;;14.18;78.74;100250.91;5024084;28;20064;-71
2021/05/25 05:22:23;;;;;;;3.00;1.20;;;;;;;14.22;77.94;100267.38;5036945;28;20435;-70
2021/05/25 05:24:50;;;;;;;3.33;1.25;;;;;;;13.84;78.42;100271.25;5030601;28;20379;-70
2021/05/25 05:27:17;;;;;;;5.22;1.73;;;;;;;13.72;79.43;100271.38;5027001;28;20123;-71
2021/05/25 05:29:45;;;;;;;2.63;1.48;;;;;;;13.71;79.76;100275.81;5006966;28;20134;-70
2021/05/25 05:32:12;;;;;;;6.88;1.90;;;;;;;13.70;80.22;100274.13;5026395;28;20137;-71
2021/05/25 05:34:39;;;;;;;3.75;1.40;;;;;;;13.63;79.05;100267.63;5028319;28;20053;-71
2021/05/25 05:37:06;;;;;;;4.22;1.63;;;;;;;13.64;79.82;100279.88;5029851;28;20132;-68
2021/05/25 05:39:33;;;;;;;5.30;2.17;;;;;;;13.56;81.51;100296.38;5027577;28;20092;-70
2021/05/25 05:42:01;;;;;;;4.97;1.80;;;;;;;13.47;82.05;100290.94;5024755;28;20463;-71
2021/05/25 05:44:28;;;;;;;7.40;1.90;;;;;;;13.41;81.85;100301.00;5026582;28;20042;-71
2021/05/25 05:46:55;;;;;;;4.25;1.88;;;;;;;13.41;82.62;100298.34;5026432;28;20133;-70
2021/05/25 05:49:23;;;;;;;4.03;1.88;;;;;;;13.30;80.49;100300.13;5030096;28;20133;-71
2021/05/25 05:51:51;;;;;;;6.30;1.73;;;;;;;13.43;80.57;100307.03;5026099;28;23007;-70
2021/05/25 05:54:18;;;;;;;6.20;1.80;;;;;;;13.43;80.22;100311.47;5024465;28;20172;-70
2021/05/25 05:56:49;;;;;;;3.72;1.75;;;;;;;13.44;81.14;100321.09;5020238;28;20049;-69
2021/05/25 05:59:17;;;;;;;6.47;2.13;;;;;;;13.35;80.75;100314.69;5020995;28;20053;-69
2021/05/25 06:01:44;;;;;;;4.05;1.85;;;;;;;13.38;80.45;100309.19;5021473;28;20140;-70
2021/05/25 06:04:11;;;;;;;5.65;2.15;;;;;;;13.31;80.00;100315.88;5032465;28;20055;-70
2021/05/25 06:06:38;;;;;;;4.68;1.88;;;;;;;13.04;80.47;100320.56;5028226;28;20049;-71
2021/05/25 06:09:06;;;;;;;5.97;1.92;;;;;;;13.13;79.09;100315.41;5028656;28;20444;-74
2021/05/25 06:11:33;;;;;;;12.35;1.90;;;;;;;12.88;78.45;100310.28;5025665;28;21037;-70
2021/05/25 06:14:00;;;;;;;2.75;1.50;;;;;;;12.91;77.98;100310.03;5030259;28;20443;-71
2021/05/25 06:16:31;;;;;;;3.72;1.60;;;;;;;13.04;76.97;100317.91;5026125;28;20136;-70
2021/05/25 06:18:58;;;;;;;6.32;1.48;;;;;;;12.82;76.83;100306.28;5032536;28;20053;-70
2021/05/25 06:21:26;;;;;;;4.97;2.05;;;;;;;12.84;76.57;100301.75;5032867;28;20124;-71
2021/05/25 06:23:53;;;;;;;6.00;1.95;;;;;;;12.94;76.10;100301.91;5020608;28;20121;-71
2021/05/25 06:26:21;;;;;;;7.07;1.63;;;;;;;12.81;76.27;100314.31;5006799;28;20064;-70
2021/05/25 06:28:48;;;;;;;11.80;2.65;;;;;;;12.87;75.69;100319.97;5025403;28;20128;-71
2021/05/25 06:31:15;;;;;;;3.08;1.48;;;;;;;12.92;75.44;100314.34;5026680;28;20151;-71
2021/05/25 06:33:42;;;;;;;11.73;1.88;;;;;;;13.10;75.96;100320.09;5028144;28;20052;-71
2021/05/25 06:36:10;;;;;;;7.10;1.20;;;;;;;13.12;75.64;100323.47;5029788;28;20164;-70
2021/05/25 06:38:37;;;;;;;2.78;1.30;;;;;;;13.23;74.96;100317.41;5025663;28;20053;-69
2021/05/25 06:41:04;;;;;;;3.92;1.40;;;;;;;13.35;72.97;100319.97;5006610;28;20079;-69
2021/05/25 06:43:32;;;;;;;3.75;1.10;;;;;;;13.40;73.24;100317.81;5023870;28;20543;-69
2021/05/25 06:45:59;;;;;;;4.50;1.48;;;;;;;13.42;72.58;100315.94;5025046;28;20068;-70
2021/05/25 06:48:26;;;;;;;5.35;1.50;;;;;;;13.44;73.02;100318.44;5024617;28;20053;-69
2021/05/25 06:50:54;;;;;;;5.88;0.98;;;;;;;13.13;74.16;100331.28;5028592;28;20040;-71
2021/05/25 06:53:21;;;;;;;4.45;1.20;;;;;;;13.06;73.41;100334.50;5022241;28;20057;-69
2021/05/25 06:55:48;;;;;;;8.85;1.60;;;;;;;13.27;72.19;100337.38;5003147;28;20115;-72
2021/05/25 06:58:15;;;;;;;8.20;1.83;;;;;;;13.44;72.16;100336.94;5011503;28;20053;-69
2021/05/25 07:00:43;;;;;;;4.85;1.00;;;;;;;13.66;70.28;100344.09;5029193;28;20140;-71
2021/05/25 07:03:10;;;;;;;5.57;1.25;;;;;;;13.84;69.26;100341.84;5022653;28;20120;-70
2021/05/25 07:05:37;;;;;;;3.42;1.13;;;;;;;14.14;67.30;100342.13;5024326;28;20540;-71
2021/05/25 07:08:04;;;;;;;4.20;1.08;;;;;;;14.05;65.82;100334.03;5026748;28;20127;-70
2021/05/25 07:10:32;;;;;;;3.42;1.25;;;;;;;13.99;64.84;100335.38;5025584;28;20053;-76
2021/05/25 07:12:59;;;;;;;6.45;1.05;;;;;;;14.54;63.13;100335.50;5010583;28;20088;-69
2021/05/25 07:15:26;;;;;;;1.65;0.98;;;;;;;14.85;60.46;100328.56;5023523;28;20460;-69
2021/05/25 07:17:57;;;;;;;2.95;0.75;;;;;;;14.73;61.11;100324.28;5018159;28;20503;-69
2021/05/25 07:20:25;;;;;;;2.17;0.80;;;;;;;14.63;61.74;100327.69;5025032;28;20061;-68
2021/05/25 07:22:54;;;;;;;1.77;1.00;;;;;;;14.80;60.46;100336.06;5027214;28;20045;-71
2021/05/25 07:25:23;;;;;;;4.55;0.90;;;;;;;14.67;60.61;100341.50;5025086;28;20053;-68
2021/05/25 07:27:50;;;;;;;1.92;1.00;;;;;;;14.46;60.76;100346.69;5024909;28;20080;-69
2021/05/25 07:30:18;;;;;;;4.78;0.80;;;;;;;14.31;61.21;100346.06;5027736;28;20057;-69
2021/05/25 07:32:46;;;;;;;2.28;0.90;;;;;;;14.70;59.56;100349.19;5018878;28;20076;-70
2021/05/25 07:35:14;;;;;;;2.15;0.80;;;;;;;14.60;59.02;100357.06;5024908;28;20107;-68
2021/05/25 07:37:42;;;;;;;3.45;1.02;;;;;;;14.64;59.17;100355.00;5007371;28;20102;-70
2021/05/25 07:40:11;;;;;;;3.92;1.00;;;;;;;14.52;59.18;100350.69;5022020;28;20064;-70
2021/05/25 07:42:38;;;;;;;4.78;1.33;;;;;;;14.66;58.83;100358.34;5021716;28;20049;-69
2021/05/25 07:45:06;;;;;;;6.00;0.93;;;;;;;14.60;58.73;100367.66;5023852;28;20053;-70
2021/05/25 07:47:34;;;;;;;5.22;1.45;;;;;;;14.04;62.26;100364.13;5024973;28;20057;-71
2021/05/25 07:50:15;;;;;;;5.43;1.13;;;;;;;14.06;61.08;100378.09;5017311;28;20052;-70
2021/05/25 07:52:55;;;;;;;3.47;1.08;;;;;;;14.09;60.43;100381.31;5029923;28;20065;-69
2021/05/25 07:55:26;;;;;;;4.00;1.02;;;;;;;13.83;61.01;100369.28;5019487;28;20050;-70
2021/05/25 07:57:54;;;;;;;4.90;0.70;;;;;;;13.72;60.99;100370.09;5020107;28;20045;-70
2021/05/25 08:00:22;;;;;;;4.28;1.10;;;;;;;14.02;59.62;100388.06;5024547;28;20698;-73
2021/05/25 08:02:49;;;;;;;4.55;0.77;;;;;;;14.26;57.60;100395.06;5024627;28;20053;-70
2021/05/25 08:05:17;;;;;;;4.28;0.90;;;;;;;14.46;57.16;100397.00;5007902;28;20045;-69
2021/05/25 08:07:45;;;;;;;3.45;0.75;;;;;;;14.56;56.21;100397.16;5005991;28;20084;-68
2021/05/25 08:10:13;;;;;;;9.85;0.80;;;;;;;14.60;57.37;100396.78;5028039;28;20144;-69
2021/05/25 08:12:40;;;;;;;3.10;0.70;;;;;;;14.75;55.77;100393.88;4992095;28;20060;-68
2021/05/25 08:15:09;;;;;;;3.20;0.93;;;;;;;14.77;54.93;100391.94;5003803;28;20056;-69
2021/05/25 08:17:48;;;;;;;4.00;0.85;;;;;;;15.10;54.66;100396.34;5026309;28;20049;-68
2021/05/25 08:20:17;;;;;;;5.32;0.80;;;;;;;15.33;54.33;100382.03;5020666;28;20113;-69
2021/05/25 08:23:08;;;;;;;3.42;1.42;;;;;;;15.59;52.80;100397.59;5024523;28;20088;-70
2021/05/25 08:25:35;;;;;;;1.73;0.82;;;;;;;15.62;52.52;100398.16;5025660;28;20065;-70
2021/05/25 08:28:05;;;;;;;3.72;0.90;;;;;;;15.36;53.58;100392.41;5024764;28;20124;-72
2021/05/25 08:30:36;;;;;;;3.78;1.40;;;;;;;15.32;53.22;100384.81;5024116;28;20088;-71
2021/05/25 08:33:04;;;;;;;4.95;0.90;;;;;;;14.97;55.00;100391.19;5023898;28;20132;-69
2021/05/25 08:35:37;;;;;;;8.27;1.10;;;;;;;14.77;55.73;100395.44;5029409;28;20426;-71
2021/05/25 08:38:07;;;;;;;4.13;1.20;;;;;;;14.58;55.96;100389.91;5029107;28;20041;-72
2021/05/25 08:40:36;;;;;;;8.57;1.17;;;;;;;14.46;56.68;100394.38;5023632;28;20677;-69
2021/05/25 08:43:04;;;;;;;2.40;0.75;;;;;;;14.28;56.47;100399.28;5001722;28;20064;-70
2021/05/25 08:45:31;;;;;;;4.40;1.05;;;;;;;14.63;56.71;100399.22;5026817;28;20107;-72
2021/05/25 08:47:58;;;;;;;2.05;0.82;;;;;;;14.83;54.73;100397.59;5026865;28;20137;-69
2021/05/25 08:50:46;;;;;;;2.40;0.63;;;;;;;15.18;53.53;100402.69;5026122;28;20420;-72
2021/05/25 08:53:13;;;;;;;10.35;1.10;;;;;;;15.74;52.03;100406.13;5007069;28;20149;-71
2021/05/25 08:55:42;;;;;;;1.60;0.60;;;;;;;15.85;50.72;100408.69;5011640;28;20070;-70
2021/05/25 08:58:09;;;;;;;5.78;0.88;;;;;;;16.03;49.84;100415.13;5021787;28;20137;-70
2021/05/25 09:00:37;;;;;;;7.68;1.60;;;;;;;15.74;51.45;100408.78;5027978;28;20049;-70
2021/05/25 09:03:04;;;;;;;4.75;0.95;;;;;;;15.43;51.98;100406.81;5028360;28;20062;-71
2021/05/25 09:05:32;;;;;;;6.40;1.10;;;;;;;15.54;51.12;100408.59;5029988;28;20095;-69
2021/05/25 09:07:59;;;;;;;4.57;0.93;;;;;;;15.63;51.73;100415.78;5025739;28;20595;-70
2021/05/25 09:10:32;;;;;;;4.90;1.20;;;;;;;15.78;50.26;100420.81;5025966;28;20049;-69
2021/05/25 09:13:00;;;;;;;6.22;1.13;;;;;;;15.99;50.28;100410.22;5029541;28;20135;-69
2021/05/25 09:15:43;;;;;;;2.95;0.77;;;;;;;16.37;48.44;100412.22;5027962;28;20638;-69
2021/05/25 09:18:18;;;;;;;1.65;0.70;;;;;;;16.48;48.37;100411.28;5031502;28;20050;-70
2021/05/25 09:20:56;;;;;;;1.48;0.70;;;;;;;16.10;49.11;100413.63;5025581;28;20069;-71
2021/05/25 09:23:43;;;;;;;3.92;0.73;;;;;;;16.23;48.48;100405.44;5025725;28;20049;-70
2021/05/25 09:26:25;;;;;;;3.65;0.80;;;;;;;16.54;47.95;100416.06;5028066;28;20059;-69
2021/05/25 09:28:57;;;;;;;4.43;0.70;;;;;;;16.93;47.23;100414.38;5019908;28;20041;-71
2021/05/25 09:31:42;;;;;;;3.78;0.95;;;;;;;17.63;45.32;100408.03;5026987;28;20308;-70
2021/05/25 09:34:20;;;;;;;4.30;0.70;;;;;;;18.26;43.23;100396.03;5026392;28;20122;-70
2021/05/25 09:37:05;;;;;;;3.10;1.58;;;;;;;18.37;42.48;100394.03;5027275;28;20057;-69
2021/05/25 09:39:35;;;;;;;1.50;0.73;;;;;;;18.57;41.63;100396.59;5022977;28;20061;-69
2021/05/25 09:42:05;;;;;;;2.78;0.70;;;;;;;18.16;42.87;100390.72;5024294;28;20108;-69
2021/05/25 09:44:33;;;;;;;3.78;0.77;;;;;;;17.90;42.72;100396.66;5029643;28;20107;-70
2021/05/25 09:47:02;;;;;;;3.22;0.98;;;;;;;17.15;44.25;100408.84;5026849;28;20404;-70
2021/05/25 09:49:29;;;;;;;2.17;0.75;;;;;;;17.29;43.64;100409.41;5028042;28;20068;-69
2021/05/25 09:52:04;;;;;;;5.28;0.70;;;;;;;17.24;44.23;100401.00;5026494;28;20360;-70
2021/05/25 09:54:32;;;;;;;9.80;0.90;;;;;;;17.25;44.54;100392.06;5006212;28;20042;-70
2021/05/25 09:57:02;;;;;;;2.95;0.88;;;;;;;18.01;43.51;100387.66;5024482;28;20124;-69
2021/05/25 09:59:39;;;;;;;4.72;0.60;;;;;;;18.01;43.22;100386.84;5029400;28;20084;-70
2021/05/25 10:02:20;;;;;;;1.25;0.60;;;;;;;18.00;42.79;100382.50;5032774;28;20115;-70
2021/05/25 10:05:06;;;;;;;2.17;0.60;;;;;;;18.01;42.04;100382.34;5029039;28;20576;-71
2021/05/25 10:07:35;;;;;;;2.17;0.75;;;;;;;18.17;41.85;100382.59;5010794;28;20060;-71
2021/05/25 10:10:05;;;;;;;6.15;0.82;;;;;;;18.39;41.13;100377.88;5029161;28;20064;-70
2021/05/25 10:12:33;;;;;;;3.53;0.60;;;;;;;17.88;41.21;100373.84;5031505;28;20060;-69
2021/05/25 10:15:00;;;;;;;1.35;0.70;;;;;;;17.92;41.76;100372.56;5036376;28;20160;-70
2021/05/25 10:20:05;;;;;;;1.48;0.50;;;;;;;16.49;45.08;100381.94;5027877;28;20502;-69
2021/05/25 10:22:34;;;;;;;5.72;0.82;;;;;;;15.96;46.72;100384.75;5014891;28;20128;-69
2021/05/25 10:25:02;;;;;;;2.47;0.57;;;;;;;15.93;47.27;100393.81;5032019;28;20855;-68
2021/05/25 10:27:29;;;;;;;3.75;0.80;;;;;;;15.32;48.39;100404.22;5024479;28;20075;-70
2021/05/25 10:29:57;;;;;;;3.28;0.80;;;;;;;14.65;49.65;100410.50;5024257;28;20057;-69
2021/05/25 10:32:26;;;;;;;2.22;0.60;;;;;;;14.49;50.98;100409.19;5022968;28;20057;-69
2021/05/25 10:34:54;;;;;;;5.55;0.85;;;;;;;14.58;53.45;100425.19;5029471;28;20060;-71
2021/05/25 10:37:22;;;;;;;2.50;0.70;;;;;;;13.89;57.69;100421.72;5032690;28;20482;-70
2021/05/25 10:39:53;;;;;;;2.70;1.13;;;;;;;13.58;58.37;100433.78;5026222;28;20083;-70
2021/05/25 10:42:31;;;;;;;1.13;0.60;;;;;;;13.34;59.40;100431.16;5029136;28;20041;-69
2021/05/25 10:45:18;;;;;;;2.55;0.98;;;;;;;13.33;59.07;100450.63;5022063;28;20292;-70
2021/05/25 10:48:07;;;;;;;1.60;0.88;;;;;;;13.67;57.53;100452.44;5029509;28;20451;-69
2021/05/25 10:50:38;;;;;;;8.50;0.68;;;;;;;13.88;56.32;100451.81;4996727;28;20053;-70
2021/05/25 10:53:06;;;;;;;2.55;0.73;;;;;;;13.45;57.47;100452.34;5043325;22;20049;-70
2021/05/25 10:55:36;;;;;;;2.90;0.80;;;;;;;13.45;58.87;100452.34;5046722;28;20049;-72
2021/05/25 10:58:29;;;;;;;3.67;0.90;;;;;;;14.25;57.42;100443.69;5024024;28;20095;-69
2021/05/25 11:00:58;;;;;;;1.15;0.80;;;;;;;14.50;57.33;100445.31;5041610;28;20045;-75
2021/05/25 11:03:25;;;;;;;5.45;0.98;;;;;;;14.81;56.70;100449.88;5025979;28;20054;-71
2021/05/25 11:06:00;;;;;;;0.80;0.60;;;;;;;14.39;59.93;100444.31;5027583;28;20398;-70
2021/05/25 11:08:41;;;;;;;6.00;0.90;;;;;;;13.44;65.21;100440.09;5021668;28;20150;-74
2021/05/25 11:11:18;;;;;;;9.35;0.90;;;;;;;13.07;68.47;100440.09;5005424;28;20049;-74
2021/05/25 11:13:49;;;;;;;4.95;0.77;;;;;;;13.39;70.85;100431.66;5020467;28;20073;-70
2021/05/25 11:16:36;;;;;;;4.43;0.77;;;;;;;14.15;67.41;100427.69;5013756;28;20550;-69
2021/05/25 11:19:09;;;;;;;1.77;0.75;;;;;;;14.54;66.42;100414.97;5002625;28;20061;-73
2021/05/25 11:24:41;;;;;;;3.50;1.10;;;;;;;14.51;63.09;100421.34;5029904;28;21035;-74
2021/05/25 11:27:13;;;;;;;;;;;;;;;14.60;65.05;100417.97;5024810;28;20137;-73
2021/05/25 11:29:51;;;;;;;8.43;1.40;;;;;;;14.62;65.04;100418.69;5005639;28;19929;-73
2021/05/25 11:32:21;;;;;;;10.50;1.33;;;;;;;14.34;67.92;100421.81;5000987;28;20045;-72
2021/05/25 11:35:08;;;;;;;5.45;1.02;;;;;;;14.21;70.28;100419.25;5013084;28;20061;-71
2021/05/25 11:37:41;;;;;;;3.80;0.95;;;;;;;14.10;71.37;100428.03;5027120;28;20128;-71
2021/05/25 11:40:14;;;;;;;3.17;1.02;;;;;;;13.91;72.46;100430.38;5022017;28;20062;-71
2021/05/25 11:42:49;;;;;;;4.50;1.10;;;;;;;13.45;73.11;100417.97;5011991;28;20045;-73
2021/05/25 11:45:18;;;;;;;7.18;1.73;;;;;;;13.18;74.02;100418.16;5023919;28;20103;-71
2021/05/25 11:48:20;;;;;;;8.38;1.85;;;;;;;13.25;74.61;100423.88;5005760;28;20387;-72
2021/05/25 11:50:48;;;;;;;2.47;1.27;;;;;;;13.91;73.12;100423.31;5025831;28;20051;-71
2021/05/25 11:53:21;;;;;;;4.55;1.33;;;;;;;14.74;72.89;100431.94;5034817;28;20406;-69
2021/05/25 11:55:48;;;;;;;4.28;1.10;;;;;;;15.31;68.78;100421.09;5038791;28;20052;-71
2021/05/25 11:58:21;;;;;;;1.88;0.90;;;;;;;15.62;66.68;100419.41;5033439;28;20113;-71